Time;durP1;ratioP1;P1;durP2;ratioP2;P2;SDS_P1;SDS_P2;PMS_P1;PMS_P2;Temp;Humidity;BMP_temperature;BMP_pressure;BME280_temperature;BME280_humidity;BME280_pressure;Samples;Min_cycle;Max_cycle;Signal;HPM_P1;HPM_P2
2021/07/01 00:00:14;;;;;;;5.75;2.80;;;;;;;12.51;100.00;98656.44;4977779;28;20038;-64
2021/07/01 00:02:40;;;;;;;6.10;2.75;;;;;;;12.38;100.00;98624.81;4971786;28;20138;-63
2021/07/01 00:05:09;;;;;;;4.32;2.85;;;;;;;12.56;100.00;98642.22;4985632;28;20547;-64
2021/07/01 00:07:34;;;;;;;9.00;2.63;;;;;;;12.49;100.00;98647.69;4987940;28;20081;-64
2021/07/01 00:09:59;;;;;;;5.75;2.97;;;;;;;12.56;100.00;98650.38;4990485;28;20030;-64
2021/07/01 00:12:24;;;;;;;4.80;3.15;;;;;;;12.42;100.00;98633.34;4988968;28;20027;-63
2021/07/01 00:14:50;;;;;;;6.13;3.40;;;;;;;12.61;100.00;98655.97;4988478;28;20030;-64
2021/07/01 00:17:15;;;;;;;5.47;3.30;;;;;;;12.54;99.97;98644.31;4990357;28;20026;-64
2021/07/01 00:19:40;;;;;;;4.75;3.08;;;;;;;12.60;99.11;98651.56;4984611;28;20077;-64
2021/07/01 00:22:06;;;;;;;5.47;3.03;;;;;;;12.56;99.91;98653.91;4987787;28;20396;-64
2021/07/01 00:24:31;;;;;;;5.78;3.08;;;;;;;12.63;100.00;98656.59;4988540;28;20025;-65
2021/07/01 00:26:56;;;;;;;5.97;3.75;;;;;;;12.57;100.00;98657.44;4989437;28;20849;-64
2021/07/01 00:29:22;;;;;;;5.57;3.60;;;;;;;12.56;100.00;98662.03;4989458;28;20034;-64
2021/07/01 00:31:47;;;;;;;9.15;3.67;;;;;;;12.63;99.14;98653.88;4992217;28;20034;-64
2021/07/01 00:34:13;;;;;;;5.95;3.90;;;;;;;12.61;100.00;98651.38;4988534;28;20097;-65
2021/07/01 00:36:38;;;;;;;6.05;3.40;;;;;;;12.51;100.00;98645.59;4988445;28;20030;-65
2021/07/01 00:39:05;;;;;;;8.30;3.95;;;;;;;12.60;99.65;98655.16;4989458;28;20057;-64
2021/07/01 00:41:30;;;;;;;6.22;3.80;;;;;;;12.65;100.00;98668.03;4993983;28;20041;-64
2021/07/01 00:43:55;;;;;;;6.50;3.85;;;;;;;12.63;99.94;98659.31;4988751;28;20026;-66
2021/07/01 00:46:21;;;;;;;7.88;4.10;;;;;;;12.60;99.81;98663.28;4990121;28;20109;-64
2021/07/01 00:48:46;;;;;;;5.97;4.10;;;;;;;12.60;99.94;98665.13;4981021;28;20097;-65
2021/07/01 00:51:11;;;;;;;6.15;3.90;;;;;;;12.60;99.60;98670.56;4989005;28;20061;-64
2021/07/01 00:53:37;;;;;;;6.55;3.40;;;;;;;12.57;99.70;98665.59;4987741;28;20550;-64
2021/07/01 00:56:05;;;;;;;6.40;3.58;;;;;;;12.61;100.00;98664.94;4986148;28;20396;-66
2021/07/01 00:58:31;;;;;;;6.32;4.15;;;;;;;12.60;99.81;98662.44;4989239;28;20539;-64
2021/07/01 01:01:04;;;;;;;5.40;4.13;;;;;;;12.45;99.14;98647.31;4975392;28;20455;-64
2021/07/01 01:03:38;;;;;;;6.55;3.97;;;;;;;12.62;98.84;98657.63;4988550;28;20030;-64
2021/07/01 01:06:05;;;;;;;6.80;3.90;;;;;;;12.59;99.52;98652.63;4977305;28;20105;-64
2021/07/01 01:08:30;;;;;;;5.90;3.85;;;;;;;12.60;99.14;98660.56;4988880;28;20037;-64
2021/07/01 01:10:56;;;;;;;7.90;3.80;;;;;;;12.57;99.18;98644.69;4988156;28;20034;-64
2021/07/01 01:13:25;;;;;;;6.22;3.47;;;;;;;12.53;99.28;98638.06;4988791;28;20399;-64
2021/07/01 01:15:58;;;;;;;5.47;3.72;;;;;;;12.65;98.74;98654.47;4987827;28;20030;-64
2021/07/01 01:18:24;;;;;;;5.80;3.38;;;;;;;12.60;98.76;98666.00;4986517;28;20470;-65
2021/07/01 01:20:51;;;;;;;6.93;3.28;;;;;;;12.66;98.89;98662.38;4984683;28;20087;-64
2021/07/01 01:23:17;;;;;;;7.07;3.55;;;;;;;12.71;98.13;98661.75;4987575;28;20118;-64
2021/07/01 01:25:57;;;;;;;4.22;3.22;;;;;;;12.64;97.90;98650.09;4986982;28;20738;-64
2021/07/01 01:28:22;;;;;;;8.48;3.35;;;;;;;12.54;97.49;98641.59;4987877;28;20034;-64
2021/07/01 01:30:47;;;;;;;6.57;3.33;;;;;;;12.70;97.90;98657.34;4982776;28;20048;-64
2021/07/01 01:33:13;;;;;;;3.63;2.83;;;;;;;12.53;97.75;98640.78;4986729;28;20033;-65
2021/07/01 01:35:40;;;;;;;5.05;2.92;;;;;;;12.67;98.04;98658.63;4988973;28;20030;-64
2021/07/01 01:38:13;;;;;;;5.05;3.30;;;;;;;12.64;97.30;98655.53;4987378;28;20415;-64
2021/07/01 01:40:40;;;;;;;5.28;3.03;;;;;;;12.63;97.69;98653.88;4987241;28;20046;-64
2021/07/01 01:43:06;;;;;;;8.02;3.63;;;;;;;12.66;97.14;98659.69;4987534;28;20745;-64
2021/07/01 01:45:31;;;;;;;5.05;3.17;;;;;;;12.63;97.36;98654.69;4987659;28;20030;-64
2021/07/01 01:47:57;;;;;;;4.97;3.17;;;;;;;12.63;97.21;98654.69;4987821;28;20093;-64
2021/07/01 01:50:23;;;;;;;4.25;3.13;;;;;;;12.67;97.13;98660.50;4988424;28;20034;-64
2021/07/01 01:52:49;;;;;;;6.72;3.15;;;;;;;12.63;96.77;98659.31;4987274;28;20032;-64
2021/07/01 01:55:15;;;;;;;7.55;3.35;;;;;;;12.50;97.12;98633.09;4987814;28;20608;-64
2021/07/01 01:57:46;;;;;;;5.50;3.60;;;;;;;12.62;97.08;98658.44;4987339;28;20022;-64
2021/07/01 02:00:13;;;;;;;3.80;2.97;;;;;;;12.64;97.17;98658.22;4987754;28;20096;-64
2021/07/01 02:02:39;;;;;;;8.93;3.47;;;;;;;12.65;97.01;98662.59;4988741;28;20042;-64
2021/07/01 02:05:06;;;;;;;6.30;3.92;;;;;;;12.66;96.88;98656.97;4988083;28;20034;-64
2021/07/01 02:07:32;;;;;;;6.43;4.00;;;;;;;12.64;97.08;98663.66;4987786;28;20055;-64
2021/07/01 02:09:58;;;;;;;8.35;4.00;;;;;;;12.60;97.21;98662.44;4987833;28;20034;-64
2021/07/01 02:12:24;;;;;;;7.00;3.78;;;;;;;12.57;97.25;98638.44;4987541;28;20527;-64
2021/07/01 02:14:49;;;;;;;5.45;3.92;;;;;;;12.61;97.31;98664.09;4988907;28;20403;-64
2021/07/01 02:17:15;;;;;;;6.15;3.50;;;;;;;12.61;97.36;98666.81;4988129;28;20038;-64
2021/07/01 02:19:40;;;;;;;6.07;3.60;;;;;;;12.58;97.31;98659.94;4986612;28;20030;-64
2021/07/01 02:22:05;;;;;;;8.98;4.50;;;;;;;12.57;97.42;98660.16;4987110;28;20503;-65
2021/07/01 02:24:31;;;;;;;6.03;3.88;;;;;;;12.56;97.22;98666.66;4986527;28;20176;-64
2021/07/01 02:26:56;;;;;;;4.72;3.55;;;;;;;12.60;98.19;98674.13;4988378;28;20062;-65
2021/07/01 02:29:21;;;;;;;11.63;4.35;;;;;;;12.46;97.63;98654.38;4986555;28;20099;-64
2021/07/01 02:31:47;;;;;;;7.18;4.50;;;;;;;12.57;97.09;98671.00;4989667;28;20030;-64
2021/07/01 02:34:12;;;;;;;11.02;3.60;;;;;;;12.47;97.43;98661.50;4991568;28;20480;-64
2021/07/01 02:36:37;;;;;;;6.28;3.97;;;;;;;12.62;97.70;98676.63;4991564;28;20030;-64
2021/07/01 02:39:07;;;;;;;7.05;3.90;;;;;;;12.60;97.58;98681.44;4991312;28;20032;-64
2021/07/01 02:41:33;;;;;;;4.70;3.28;;;;;;;12.59;97.98;98680.59;4990878;28;20032;-64
2021/07/01 02:43:58;;;;;;;6.68;4.38;;;;;;;12.58;98.12;98683.56;4991084;28;20034;-64
2021/07/01 02:46:23;;;;;;;7.10;3.47;;;;;;;12.58;98.09;98687.09;4989743;28;20358;-64
2021/07/01 02:48:49;;;;;;;5.97;3.45;;;;;;;12.55;98.00;98682.09;4990967;28;20030;-64
2021/07/01 02:51:14;;;;;;;6.15;3.75;;;;;;;12.57;98.05;98674.56;4989465;28;20041;-66
2021/07/01 02:53:39;;;;;;;6.32;3.85;;;;;;;12.58;97.86;98678.13;4990767;28;20022;-64
2021/07/01 02:56:05;;;;;;;6.22;3.58;;;;;;;12.66;97.52;98686.81;4987443;28;20509;-64
2021/07/01 02:58:30;;;;;;;5.82;3.45;;;;;;;12.67;96.72;98682.22;4991197;28;20362;-64
2021/07/01 03:00:55;;;;;;;6.80;4.00;;;;;;;12.64;97.45;98691.63;4984909;28;20791;-64
2021/07/01 03:03:20;;;;;;;5.00;3.35;;;;;;;12.57;96.92;98666.41;4990127;28;20499;-64
2021/07/01 03:05:46;;;;;;;6.05;3.15;;;;;;;12.70;96.49;98685.31;4990478;28;20445;-64
2021/07/01 03:08:11;;;;;;;4.07;2.83;;;;;;;12.70;96.80;98674.44;4991899;28;20034;-64
2021/07/01 03:10:36;;;;;;;4.60;2.70;;;;;;;12.75;96.38;98686.56;4989716;28;20097;-64
2021/07/01 03:13:02;;;;;;;6.18;3.40;;;;;;;12.69;96.33;98680.94;4989337;28;20121;-64
2021/07/01 03:15:27;;;;;;;4.30;3.08;;;;;;;12.71;96.73;98684.28;4988790;28;20063;-64
2021/07/01 03:17:52;;;;;;;6.38;4.20;;;;;;;12.73;96.47;98678.63;4989778;28;20435;-64
2021/07/01 03:20:18;;;;;;;4.32;2.88;;;;;;;12.67;96.49;98672.19;4988768;28;20379;-64
2021/07/01 03:22:43;;;;;;;5.28;2.83;;;;;;;12.62;96.48;98663.88;4989449;28;20054;-65
2021/07/01 03:25:09;;;;;;;4.55;3.25;;;;;;;12.66;96.88;98675.13;4990469;28;20038;-65
2021/07/01 03:27:34;;;;;;;7.40;3.50;;;;;;;12.71;96.40;98675.31;4991159;28;20476;-64
2021/07/01 03:29:59;;;;;;;5.75;3.35;;;;;;;12.70;96.69;98676.34;4989005;28;20022;-65
2021/07/01 03:32:25;;;;;;;7.35;3.55;;;;;;;12.65;97.12;98671.59;4990389;28;20037;-65
2021/07/01 03:34:50;;;;;;;6.32;3.42;;;;;;;12.60;97.00;98682.28;4990381;28;20022;-65
2021/07/01 03:37:16;;;;;;;5.97;4.00;;;;;;;12.65;96.89;98673.47;4991156;28;20086;-64
2021/07/01 03:39:41;;;;;;;4.72;3.40;;;;;;;12.60;97.69;98676.00;4990435;28;20027;-64
2021/07/01 03:42:06;;;;;;;6.88;3.97;;;;;;;12.63;97.16;98689.16;4990004;28;20038;-64
2021/07/01 03:44:32;;;;;;;12.30;3.70;;;;;;;12.64;96.57;98682.66;4989504;28;20038;-64
2021/07/01 03:46:57;;;;;;;10.52;3.88;;;;;;;12.46;96.76;98656.28;4991234;28;20037;-65
2021/07/01 03:49:22;;;;;;;7.40;3.78;;;;;;;12.67;97.04;98685.75;4990261;28;20057;-65
2021/07/01 03:51:48;;;;;;;5.70;3.63;;;;;;;12.70;96.91;98679.88;4988100;28;20034;-65
2021/07/01 03:54:13;;;;;;;5.40;3.35;;;;;;;12.78;96.87;98684.22;4989354;28;20026;-65
2021/07/01 03:56:41;;;;;;;4.75;3.50;;;;;;;12.67;96.59;98683.03;4986757;28;20384;-65
2021/07/01 03:59:11;;;;;;;5.50;3.25;;;;;;;12.72;96.86;98688.66;4989509;28;20052;-67
2021/07/01 04:01:37;;;;;;;5.35;3.40;;;;;;;12.70;96.55;98689.91;4984301;28;20064;-66
2021/07/01 04:04:03;;;;;;;5.75;3.33;;;;;;;12.75;96.90;98692.81;4986252;28;20851;-66
2021/07/01 04:06:28;;;;;;;5.78;3.40;;;;;;;12.78;96.55;98686.94;4986957;28;20034;-67
2021/07/01 04:08:54;;;;;;;5.85;3.13;;;;;;;12.81;96.34;98694.66;4986323;28;20045;-70
2021/07/01 04:11:19;;;;;;;7.43;3.35;;;;;;;12.72;96.81;98691.34;4988680;28;20034;-74
2021/07/01 04:13:44;;;;;;;4.95;3.30;;;;;;;12.64;97.08;98683.50;4995157;28;20431;-71
2021/07/01 04:16:10;;;;;;;5.95;3.20;;;;;;;12.66;96.97;98696.84;5007933;28;20503;-72
2021/07/01 04:18:35;;;;;;;5.00;3.10;;;;;;;12.58;97.29;98684.38;4982193;28;20498;-76
2021/07/01 04:21:00;;;;;;;5.43;3.30;;;;;;;12.67;97.22;98701.22;4992149;28;20054;-74
2021/07/01 04:23:26;;;;;;;6.85;3.08;;;;;;;12.80;96.93;98705.72;5000937;28;20739;-70
2021/07/01 04:25:52;;;;;;;6.88;2.95;;;;;;;12.75;96.32;98711.81;4991697;28;20029;-77
2021/07/01 04:28:17;;;;;;;7.35;3.80;;;;;;;12.70;97.33;98707.03;4992884;28;20109;-72
2021/07/01 04:30:43;;;;;;;5.40;3.60;;;;;;;12.55;97.13;98673.97;4990923;28;20014;-75
2021/07/01 04:33:08;;;;;;;6.95;3.20;;;;;;;12.69;97.38;98696.41;4989748;28;20190;-74
2021/07/01 04:35:33;;;;;;;4.45;3.30;;;;;;;12.72;97.48;98706.81;4989614;28;20023;-70
2021/07/01 04:37:58;;;;;;;4.50;2.90;;;;;;;12.76;97.84;98713.50;4991324;28;20131;-70
2021/07/01 04:40:24;;;;;;;4.00;2.85;;;;;;;12.67;97.42;98671.38;4988630;28;20030;-73
2021/07/01 04:42:49;;;;;;;5.65;3.25;;;;;;;12.83;96.94;98703.38;4987835;28;20109;-68
2021/07/01 04:45:15;;;;;;;5.18;3.45;;;;;;;12.74;97.20;98710.16;4989166;28;20042;-67
2021/07/01 04:47:40;;;;;;;6.57;3.42;;;;;;;12.82;97.54;98704.44;4990411;28;20084;-68
2021/07/01 04:50:07;;;;;;;5.82;3.28;;;;;;;12.81;97.31;98701.94;4981711;28;20027;-68
2021/07/01 04:52:32;;;;;;;6.75;3.47;;;;;;;12.86;96.90;98705.69;4975788;28;20026;-67
2021/07/01 04:54:58;;;;;;;6.15;3.15;;;;;;;12.96;96.39;98707.06;4979171;28;20033;-67
2021/07/01 04:57:23;;;;;;;8.60;3.40;;;;;;;13.04;96.00;98709.50;4980366;28;20027;-67
2021/07/01 04:59:48;;;;;;;6.93;3.92;;;;;;;13.01;95.46;98701.81;4985889;28;20022;-69
2021/07/01 05:02:14;;;;;;;9.07;3.53;;;;;;;13.04;95.57;98704.91;4988545;28;20053;-64
2021/07/01 05:04:40;;;;;;;5.20;3.33;;;;;;;13.08;95.54;98710.72;4989707;28;20023;-64
2021/07/01 05:07:05;;;;;;;7.57;3.42;;;;;;;13.23;95.59;98715.81;4989297;28;20448;-64
2021/07/01 05:09:30;;;;;;;7.55;3.95;;;;;;;13.19;96.43;98712.72;4988442;28;20036;-64
2021/07/01 05:11:55;;;;;;;7.22;3.50;;;;;;;13.23;94.87;98716.66;4988977;28;20040;-65
2021/07/01 05:14:21;;;;;;;8.85;3.75;;;;;;;13.25;95.90;98711.81;4988233;28;20454;-64
2021/07/01 05:16:47;;;;;;;8.45;4.30;;;;;;;13.50;95.43;98705.56;4986622;28;20053;-64
2021/07/01 05:19:13;;;;;;;5.50;3.47;;;;;;;13.77;93.40;98720.53;4988587;28;20480;-63
2021/07/01 05:21:38;;;;;;;8.32;3.58;;;;;;;13.77;92.54;98698.78;4988852;28;20048;-67
2021/07/01 05:24:04;;;;;;;5.13;3.03;;;;;;;13.89;91.93;98711.63;4989900;28;20049;-62
2021/07/01 05:26:29;;;;;;;5.18;3.08;;;;;;;13.79;91.70;98712.97;4989006;28;20034;-67
2021/07/01 05:28:55;;;;;;;6.53;2.70;;;;;;;13.67;91.98;98714.78;4988976;28;20044;-64
2021/07/01 05:31:20;;;;;;;7.22;2.97;;;;;;;13.55;92.73;98711.16;4989375;28;20058;-62
2021/07/01 05:33:47;;;;;;;4.13;2.33;;;;;;;13.74;91.89;98703.84;4988287;28;20081;-64
2021/07/01 05:36:12;;;;;;;6.72;2.25;;;;;;;13.51;92.47;98685.47;4988894;28;20092;-64
2021/07/01 05:38:38;;;;;;;5.57;2.55;;;;;;;13.55;92.27;98692.97;4989477;28;20133;-67
2021/07/01 05:41:03;;;;;;;4.18;2.30;;;;;;;13.64;91.91;98720.69;4989093;28;20076;-64
2021/07/01 05:43:28;;;;;;;3.42;2.35;;;;;;;13.51;92.37;98720.81;4988422;28;20077;-63
2021/07/01 05:45:54;;;;;;;6.40;2.60;;;;;;;13.65;91.19;98722.34;4987581;28;20053;-65
2021/07/01 05:48:22;;;;;;;3.95;2.22;;;;;;;13.64;91.35;98731.56;4987506;28;20037;-66
2021/07/01 05:51:20;;;;;;;7.80;2.38;;;;;;;13.78;91.42;98730.38;4989364;28;20034;-66
2021/07/01 05:54:01;;;;;;;4.03;2.60;;;;;;;13.78;90.30;98711.34;4989809;28;20088;-64
2021/07/01 05:56:27;;;;;;;2.45;2.15;;;;;;;13.81;90.57;98732.63;4980730;28;20050;-63
2021/07/01 05:58:53;;;;;;;3.42;1.95;;;;;;;13.62;91.39;98728.22;4988516;28;20038;-63
2021/07/01 06:01:19;;;;;;;3.72;2.40;;;;;;;13.69;91.30;98726.28;4991366;28;20084;-71
2021/07/01 06:03:44;;;;;;;3.63;2.35;;;;;;;13.57;91.97;98728.06;4989601;28;20022;-75
2021/07/01 06:06:13;;;;;;;4.20;2.20;;;;;;;13.54;92.41;98725.78;4989199;28;20050;-64
2021/07/01 06:08:39;;;;;;;3.85;2.28;;;;;;;13.73;92.52;98735.66;4983677;28;20026;-65
2021/07/01 06:11:08;;;;;;;3.85;2.35;;;;;;;13.80;93.42;98732.84;4992182;28;20396;-64
2021/07/01 06:13:40;;;;;;;3.97;2.05;;;;;;;13.85;92.44;98734.88;4992537;28;20400;-65
2021/07/01 06:16:11;;;;;;;4.15;2.47;;;;;;;13.67;94.03;98735.72;4993695;28;20029;-66
2021/07/01 06:18:36;;;;;;;4.15;2.72;;;;;;;13.64;94.01;98730.72;4990951;28;20534;-69
2021/07/01 06:21:01;;;;;;;4.85;3.15;;;;;;;13.55;94.98;98741.88;4991508;28;20026;-66
2021/07/01 06:23:27;;;;;;;5.50;3.42;;;;;;;13.42;94.52;98733.03;4992502;28;20043;-71
2021/07/01 06:25:54;;;;;;;6.13;2.95;;;;;;;13.44;94.57;98736.34;4995169;28;20018;-73
2021/07/01 06:28:20;;;;;;;4.55;2.90;;;;;;;13.43;94.08;98746.38;4986138;28;20023;-70
2021/07/01 06:30:47;;;;;;;4.55;3.00;;;;;;;13.50;94.45;98757.22;4994769;28;20064;-64
2021/07/01 06:33:14;;;;;;;5.00;2.65;;;;;;;13.54;93.10;98742.09;4991918;28;20030;-71
2021/07/01 06:35:45;;;;;;;7.55;3.10;;;;;;;13.62;93.20;98752.69;4991732;28;20034;-64
2021/07/01 06:38:12;;;;;;;6.40;2.83;;;;;;;13.45;93.77;98749.72;4992940;28;20034;-70
2021/07/01 06:40:39;;;;;;;5.93;3.25;;;;;;;13.41;94.34;98751.22;4990344;28;20022;-67
2021/07/01 06:43:04;;;;;;;4.38;2.88;;;;;;;13.56;94.04;98756.31;4992779;28;20028;-72
2021/07/01 06:45:31;;;;;;;4.03;2.80;;;;;;;13.57;93.00;98757.97;4991073;28;20033;-71
2021/07/01 06:47:57;;;;;;;4.45;2.30;;;;;;;13.53;93.42;98756.75;4990703;28;20425;-64
2021/07/01 06:50:25;;;;;;;6.13;2.20;;;;;;;13.52;93.35;98755.94;4991500;28;20027;-66
2021/07/01 06:52:57;;;;;;;6.13;2.75;;;;;;;13.50;93.91;98766.19;4981910;28;20562;-66
2021/07/01 06:55:24;;;;;;;5.45;2.72;;;;;;;13.20;94.03;98741.53;4992475;28;20045;-65
2021/07/01 06:57:49;;;;;;;4.43;2.78;;;;;;;13.41;94.73;98769.41;4991682;28;20034;-67
2021/07/01 07:00:18;;;;;;;3.38;2.38;;;;;;;13.46;93.86;98766.84;4978979;28;20833;-66
2021/07/01 07:02:45;;;;;;;4.10;2.78;;;;;;;13.54;93.32;98780.97;4991821;28;20541;-66
2021/07/01 07:05:12;;;;;;;4.60;2.20;;;;;;;13.62;92.54;98774.44;4985412;28;20610;-66
2021/07/01 07:07:46;;;;;;;4.05;2.58;;;;;;;13.45;92.38;98749.72;4986295;28;20030;-70
2021/07/01 07:10:14;;;;;;;6.47;2.40;;;;;;;13.62;91.90;98763.56;4991721;28;20033;-75
2021/07/01 07:12:46;;;;;;;4.38;2.83;;;;;;;13.54;91.75;98766.56;4993605;28;20049;-69
2021/07/01 07:15:28;;;;;;;4.25;2.70;;;;;;;13.61;90.91;98766.53;4994441;28;20092;-72
2021/07/01 07:18:00;;;;;;;4.40;2.45;;;;;;;13.80;91.38;98768.19;4989849;28;20025;-69
2021/07/01 07:20:29;;;;;;;4.55;2.63;;;;;;;13.44;91.33;98758.09;4988712;28;20042;-69
2021/07/01 07:22:56;;;;;;;;;;;;;;;13.53;91.66;98771.19;5009855;28;20030;-69
2021/07/01 07:25:21;;;;;;;5.28;2.78;;;;;;;13.47;91.74;98763.94;4998108;28;20008;-66
2021/07/01 07:28:00;;;;;;;5.45;2.22;;;;;;;13.79;90.56;98783.69;4991609;28;20137;-67
2021/07/01 07:30:27;;;;;;;5.25;2.40;;;;;;;13.73;90.52;98779.16;4991312;28;20037;-67
2021/07/01 07:32:55;;;;;;;5.47;2.60;;;;;;;13.86;90.85;98783.63;4992025;28;20043;-69
2021/07/01 07:35:22;;;;;;;3.72;2.13;;;;;;;13.94;89.83;98774.34;4990846;28;20198;-74
2021/07/01 07:37:48;;;;;;;4.88;2.20;;;;;;;13.70;89.68;98760.56;4991478;28;20114;-71
2021/07/01 07:40:13;;;;;;;5.90;2.50;;;;;;;13.97;89.40;98776.59;4984752;28;20671;-73
2021/07/01 07:42:42;;;;;;;7.82;2.50;;;;;;;14.08;89.22;98769.59;4988970;28;20030;-73
2021/07/01 07:45:09;;;;;;;3.08;1.98;;;;;;;14.18;87.54;98764.44;4990680;28;20113;-67
2021/07/01 07:47:34;;;;;;;5.03;2.35;;;;;;;14.51;87.70;98777.63;4992188;28;20034;-67
2021/07/01 07:49:59;;;;;;;3.67;2.25;;;;;;;14.53;87.05;98770.09;4991427;28;20022;-65
2021/07/01 07:52:26;;;;;;;4.95;2.78;;;;;;;14.56;86.52;98777.78;4990343;28;20105;-72
2021/07/01 07:54:54;;;;;;;2.90;2.08;;;;;;;14.63;85.91;98778.53;4993374;28;20019;-66
2021/07/01 07:57:22;;;;;;;3.33;2.37;;;;;;;14.57;84.91;98762.31;4988759;28;20042;-66
2021/07/01 07:59:51;;;;;;;3.20;1.90;;;;;;;14.97;83.59;98739.94;4990605;28;20026;-66
2021/07/01 08:02:26;;;;;;;3.97;2.22;;;;;;;15.13;83.63;98775.50;4989616;28;20579;-67
2021/07/01 08:04:52;;;;;;;6.00;2.75;;;;;;;14.89;83.82;98766.44;4989995;28;20496;-69
2021/07/01 08:07:18;;;;;;;2.50;1.83;;;;;;;15.12;83.65;98757.50;4989667;28;20148;-70
2021/07/01 08:09:44;;;;;;;6.18;2.20;;;;;;;15.12;83.50;98771.13;4991122;28;20056;-75
2021/07/01 08:12:09;;;;;;;4.75;2.00;;;;;;;15.18;82.70;98752.19;4990715;28;20065;-68
2021/07/01 08:14:41;;;;;;;5.70;2.58;;;;;;;15.00;83.08;98769.44;4990004;28;20125;-65
2021/07/01 08:17:07;;;;;;;3.03;2.45;;;;;;;15.25;82.11;98769.25;4990969;28;20255;-68
2021/07/01 08:19:35;;;;;;;3.00;2.10;;;;;;;15.02;83.04;98770.88;4990077;28;20687;-62
2021/07/01 08:22:00;;;;;;;5.20;2.20;;;;;;;15.06;82.77;98772.06;4987980;28;20032;-66
2021/07/01 08:24:26;;;;;;;4.57;2.53;;;;;;;15.17;82.72;98772.31;4990135;28;20035;-65
2021/07/01 08:26:51;;;;;;;2.53;1.92;;;;;;;15.45;81.22;98775.19;4989600;28;20100;-67
2021/07/01 08:29:17;;;;;;;2.83;2.05;;;;;;;15.63;79.34;98746.16;4988653;28;20030;-72
2021/07/01 08:31:47;;;;;;;3.10;2.03;;;;;;;15.51;79.78;98754.31;4991094;28;20042;-72
2021/07/01 08:34:15;;;;;;;5.13;2.03;;;;;;;15.56;80.06;98777.13;4990645;28;20041;-64
2021/07/01 08:36:44;;;;;;;2.75;1.80;;;;;;;15.67;79.55;98771.91;4989561;28;20602;-68
2021/07/01 08:39:09;;;;;;;2.50;1.70;;;;;;;15.82;79.60;98769.53;4989227;28;20551;-70
2021/07/01 08:41:34;;;;;;;5.30;2.22;;;;;;;15.93;78.52;98763.25;4990985;28;20113;-73
2021/07/01 08:44:03;;;;;;;3.22;2.10;;;;;;;16.37;77.45;98760.91;4989599;28;20088;-73
2021/07/01 08:46:40;;;;;;;5.87;2.00;;;;;;;16.51;76.82;98771.56;4991408;28;20065;-66
2021/07/01 08:49:09;;;;;;;2.22;1.60;;;;;;;16.73;74.56;98758.03;4991878;28;20030;-71
2021/07/01 08:51:39;;;;;;;3.85;1.70;;;;;;;16.33;75.72;98775.28;4990657;28;20022;-72
2021/07/01 08:54:34;;;;;;;2.58;1.58;;;;;;;16.85;74.45;98772.53;4976870;28;20695;-71
2021/07/01 08:57:02;;;;;;;4.03;1.70;;;;;;;17.07;74.06;98767.16;4986633;28;20368;-73
2021/07/01 08:59:37;;;;;;;3.13;2.10;;;;;;;16.44;74.47;98764.31;4991722;28;20034;-72
2021/07/01 09:02:07;;;;;;;2.85;1.70;;;;;;;17.13;72.63;98776.28;4984472;28;20105;-73
2021/07/01 09:04:59;;;;;;;4.95;2.03;;;;;;;16.90;72.64;98744.44;4984427;28;20045;-71
2021/07/01 09:07:26;;;;;;;3.40;2.00;;;;;;;17.68;71.62;98772.81;4988467;28;20033;-74
2021/07/01 09:10:04;;;;;;;2.55;1.60;;;;;;;17.11;71.73;98776.53;4996578;28;20113;-71
2021/07/01 09:12:30;;;;;;;3.90;1.60;;;;;;;17.24;71.14;98762.56;4987781;28;20026;-75
2021/07/01 09:14:58;;;;;;;2.45;1.52;;;;;;;17.65;70.11;98782.34;4988735;28;20023;-66
2021/07/01 09:17:33;;;;;;;2.03;1.30;;;;;;;17.57;70.53;98790.16;4986724;28;20076;-73
2021/07/01 09:20:02;;;;;;;1.75;1.38;;;;;;;17.07;70.89;98754.31;4990710;28;20037;-77
2021/07/01 09:22:28;;;;;;;2.45;1.50;;;;;;;16.84;72.34;98785.34;4990528;28;20042;-72
2021/07/01 09:24:55;;;;;;;2.03;1.40;;;;;;;16.89;72.14;98784.59;4988300;28;20042;-70
2021/07/01 09:27:22;;;;;;;3.75;1.50;;;;;;;17.18;71.13;98774.47;4990132;28;20604;-71
2021/07/01 09:29:49;;;;;;;2.53;1.38;;;;;;;17.54;71.32;98786.00;4990486;28;20026;-66
2021/07/01 09:32:17;;;;;;;1.67;1.20;;;;;;;17.20;70.82;98791.44;4994676;28;20041;-65
2021/07/01 09:34:44;;;;;;;1.92;1.38;;;;;;;17.14;70.22;98789.72;4994754;28;20026;-65
2021/07/01 09:37:10;;;;;;;1.92;0.95;;;;;;;16.69;71.80;98787.75;4988813;28;20030;-66
2021/07/01 09:39:37;;;;;;;1.42;1.10;;;;;;;16.51;72.38;98785.22;4989022;28;20034;-66
2021/07/01 09:42:04;;;;;;;1.27;1.10;;;;;;;16.28;74.06;98786.94;4989228;28;20047;-65
2021/07/01 09:44:32;;;;;;;2.42;1.30;;;;;;;16.00;75.18;98802.16;4988467;28;20488;-66
2021/07/01 09:46:58;;;;;;;3.38;1.60;;;;;;;15.89;76.36;98791.25;4989635;28;20080;-69
2021/07/01 09:49:34;;;;;;;1.95;1.30;;;;;;;15.48;79.77;98807.47;4988289;28;20030;-68
2021/07/01 09:52:06;;;;;;;2.40;1.40;;;;;;;15.45;81.11;98802.47;4988522;28;21344;-68
2021/07/01 09:54:33;;;;;;;3.97;1.77;;;;;;;14.76;85.53;98825.72;4988186;28;20054;-63
2021/07/01 09:57:04;;;;;;;3.75;1.92;;;;;;;14.43;88.41;98822.31;4982931;28;20065;-71
2021/07/01 09:59:34;;;;;;;3.22;2.17;;;;;;;14.71;88.93;98814.69;4988590;28;20114;-76
2021/07/01 10:02:31;;;;;;;;;;;;;;;15.13;88.10;98810.94;4989506;28;20093;-70
2021/07/01 10:04:57;;;;;;;4.93;1.98;;;;;;;15.28;86.11;98820.56;4962922;28;19922;-64
2021/07/01 10:07:24;;;;;;;2.17;1.75;;;;;;;15.22;86.33;98819.63;4988498;28;20037;-65
2021/07/01 10:09:55;;;;;;;2.30;1.60;;;;;;;14.82;87.01;98817.44;4982642;28;20104;-64
2021/07/01 10:12:21;;;;;;;2.25;1.70;;;;;;;14.67;87.77;98823.31;4986081;28;20038;-64
2021/07/01 10:14:49;;;;;;;6.00;2.10;;;;;;;14.52;87.36;98814.69;4988819;28;20148;-65
2021/07/01 10:17:17;;;;;;;3.97;2.10;;;;;;;14.67;88.16;98825.19;4988446;28;20030;-65
2021/07/01 10:19:43;;;;;;;5.20;2.40;;;;;;;14.81;86.77;98796.72;4989179;28;20036;-65
2021/07/01 10:22:11;;;;;;;3.35;2.47;;;;;;;15.11;85.47;98821.22;4988160;28;20027;-65
2021/07/01 10:24:52;;;;;;;3.20;2.30;;;;;;;14.92;85.01;98822.34;4988549;28;20023;-66
2021/07/01 10:27:34;;;;;;;2.53;1.90;;;;;;;14.87;83.25;98812.13;4985602;28;20038;-65
2021/07/01 10:30:02;;;;;;;4.00;1.63;;;;;;;15.03;83.02;98805.22;4984442;28;20088;-65
2021/07/01 10:32:35;;;;;;;2.20;1.40;;;;;;;15.13;81.64;98818.28;4988600;28;20030;-67
2021/07/01 10:35:01;;;;;;;2.05;1.38;;;;;;;15.27;80.86;98811.56;4991568;28;20027;-65
2021/07/01 10:37:26;;;;;;;4.45;1.52;;;;;;;15.06;81.74;98815.66;4988381;28;20042;-65
2021/07/01 10:39:53;;;;;;;1.77;1.38;;;;;;;15.15;80.78;98796.25;4988170;28;20050;-65
2021/07/01 10:42:19;;;;;;;1.88;1.27;;;;;;;15.16;79.27;98809.63;4988225;28;20081;-65
2021/07/01 10:44:45;;;;;;;1.92;1.50;;;;;;;15.51;79.39;98807.00;4987767;28;20101;-65
2021/07/01 10:47:27;;;;;;;3.35;1.48;;;;;;;15.89;78.15;98819.38;4988963;28;20499;-65
2021/07/01 10:49:52;;;;;;;3.40;1.85;;;;;;;15.95;77.06;98799.31;4988884;28;20026;-65
2021/07/01 10:52:18;;;;;;;5.43;1.77;;;;;;;16.11;75.64;98813.28;4989613;28;20034;-65
2021/07/01 10:54:58;;;;;;;2.00;1.50;;;;;;;16.18;75.00;98786.72;4989946;28;20018;-64
2021/07/01 10:57:28;;;;;;;5.35;1.83;;;;;;;16.15;74.71;98817.22;4991500;28;20711;-70
2021/07/01 10:59:54;;;;;;;3.53;2.22;;;;;;;16.83;74.15;98815.66;4990826;28;20026;-67
2021/07/01 11:02:31;;;;;;;3.22;1.98;;;;;;;16.56;73.63;98807.16;4986662;28;20034;-67
2021/07/01 11:05:00;;;;;;;4.03;1.88;;;;;;;16.87;73.74;98816.81;4991324;28;20118;-66
2021/07/01 11:07:27;;;;;;;4.55;1.80;;;;;;;17.01;72.04;98809.16;4989877;28;20037;-67
2021/07/01 11:09:56;;;;;;;4.03;1.80;;;;;;;16.44;73.52;98799.00;4991566;28;20081;-69
2021/07/01 11:12:25;;;;;;;3.38;1.95;;;;;;;16.52;73.85;98797.78;4991878;28;20033;-69
2021/07/01 11:14:54;;;;;;;3.80;1.92;;;;;;;16.65;74.27;98805.69;4992903;28;20061;-66
2021/07/01 11:17:34;;;;;;;2.92;1.85;;;;;;;16.42;74.31;98822.97;4991935;28;20057;-63
2021/07/01 11:20:18;;;;;;;4.28;2.50;;;;;;;16.23;76.65;98830.50;4992872;28;20072;-70
2021/07/01 11:22:56;;;;;;;4.80;2.28;;;;;;;16.08;77.67;98828.25;4973990;28;20038;-64
2021/07/01 11:25:22;;;;;;;7.63;2.03;;;;;;;16.04;78.59;98831.72;4990290;28;20083;-67
2021/07/01 11:27:48;;;;;;;2.72;1.60;;;;;;;16.41;77.79;98827.63;4989651;28;20037;-67
2021/07/01 11:30:24;;;;;;;2.00;1.50;;;;;;;16.34;74.61;98831.53;4996021;28;20026;-67
2021/07/01 11:33:11;;;;;;;1.77;1.50;;;;;;;16.64;72.74;98832.19;4991799;28;20041;-66
2021/07/01 11:35:37;;;;;;;2.53;1.45;;;;;;;16.79;73.29;98828.97;4982334;28;20033;-66